Time;durP1;ratioP1;P1;durP2;ratioP2;P2;SDS_P1;SDS_P2;PMS_P1;PMS_P2;Temp;Humidity;BMP_temperature;BMP_pressure;BME280_temperature;BME280_humidity;BME280_pressure;Samples;Min_cycle;Max_cycle;Signal;HPM_P1;HPM_P2
2022/12/08 00:01:31;;;;;;;12.77;8.77;;;;;;;4.70;53.13;100723.38;5078138;28;20089;-81
2022/12/08 00:03:59;;;;;;;11.93;8.32;;;;;;;4.69;53.10;100718.06;5085106;28;21624;-81
2022/12/08 00:09:22;;;;;;;11.98;8.27;;;;;;;4.68;53.26;100713.59;5077893;28;20055;-81
2022/12/08 00:11:58;;;;;;;14.57;8.55;;;;;;;4.70;52.90;100714.38;5084069;28;20501;-81
2022/12/08 00:14:29;;;;;;;11.82;8.48;;;;;;;4.68;53.27;100709.03;5079894;28;20116;-80
2022/12/08 00:16:58;;;;;;;11.48;8.15;;;;;;;4.67;53.32;100704.59;5077147;28;20525;-81
2022/12/08 00:19:27;;;;;;;11.23;8.43;;;;;;;4.68;53.25;100705.47;5080942;28;20044;-79
2022/12/08 00:21:57;;;;;;;11.95;8.18;;;;;;;4.67;52.94;100699.16;5071740;28;20502;-80
2022/12/08 00:24:32;;;;;;;12.73;8.45;;;;;;;4.68;52.94;100695.50;5081495;28;20071;-80
2022/12/08 00:26:59;;;;;;;11.18;7.45;;;;;;;4.66;53.11;100691.13;5096343;28;20032;-79
2022/12/08 00:29:28;;;;;;;12.30;7.82;;;;;;;4.66;53.21;100689.28;5071395;28;20389;-80
2022/12/08 00:31:56;;;;;;;12.48;8.20;;;;;;;4.66;53.14;100689.28;5088364;28;20040;-80
2022/12/08 00:34:24;;;;;;;11.50;7.93;;;;;;;4.67;52.92;100687.44;5081089;28;20460;-80
2022/12/08 00:36:51;;;;;;;11.57;7.88;;;;;;;4.66;52.92;100685.72;5097844;28;20058;-81
2022/12/08 00:39:19;;;;;;;11.40;7.97;;;;;;;4.67;53.22;100687.44;5083767;28;20097;-81
2022/12/08 00:44:46;;;;;;;11.52;7.15;;;;;;;4.63;53.03;100675.09;5011643;28;20057;-82
2022/12/08 00:47:14;;;;;;;9.93;7.47;;;;;;;4.65;53.17;100670.41;5061577;28;20044;-80
2022/12/08 00:49:48;;;;;;;10.95;7.70;;;;;;;4.63;53.22;100667.81;5093616;28;20560;-80
2022/12/08 00:52:16;;;;;;;11.23;7.97;;;;;;;4.64;53.20;100665.97;5077471;28;20037;-80
2022/12/08 00:54:44;;;;;;;11.15;8.00;;;;;;;4.64;53.25;100660.53;5096701;28;20051;-80
2022/12/08 00:57:13;;;;;;;9.82;6.93;;;;;;;4.65;53.17;100662.28;5077466;28;20036;-80
2022/12/08 00:59:41;;;;;;;13.15;7.90;;;;;;;4.64;52.99;100658.69;5084897;28;20044;-81
2022/12/08 01:02:09;;;;;;;9.98;7.32;;;;;;;4.66;53.32;100655.88;5074824;28;20078;-79
2022/12/08 01:04:39;;;;;;;11.32;7.47;;;;;;;4.67;53.09;100658.50;5083376;28;20036;-80
2022/12/08 01:07:07;;;;;;;11.63;7.43;;;;;;;4.65;53.06;100652.31;5080472;28;20048;-80
2022/12/08 01:09:35;;;;;;;9.25;7.03;;;;;;;4.66;53.20;100651.34;5076468;28;20458;-80
2022/12/08 01:12:04;;;;;;;11.60;7.50;;;;;;;4.66;53.12;100658.59;5080207;28;20414;-80
2022/12/08 01:14:33;;;;;;;13.07;7.95;;;;;;;4.66;53.30;100650.47;5080249;28;20464;-80
2022/12/08 01:17:01;;;;;;;10.65;6.80;;;;;;;4.65;53.14;100649.59;5078066;28;20051;-79
2022/12/08 01:19:29;;;;;;;10.18;7.25;;;;;;;4.64;53.31;100650.56;5086987;28;20079;-80
2022/12/08 01:21:57;;;;;;;11.98;8.25;;;;;;;4.65;53.29;100646.88;5083210;28;20135;-80
2022/12/08 01:24:25;;;;;;;13.02;8.02;;;;;;;4.66;53.26;100653.19;5082618;28;20334;-79
2022/12/08 01:26:53;;;;;;;14.65;8.52;;;;;;;4.65;53.24;100659.56;5077339;28;20486;-79
2022/12/08 01:29:21;;;;;;;11.82;8.30;;;;;;;4.65;53.12;100662.28;5074437;28;20691;-78
2022/12/08 01:31:50;;;;;;;14.77;8.63;;;;;;;4.66;53.28;100661.31;5082842;28;20043;-79
2022/12/08 01:34:18;;;;;;;14.23;8.63;;;;;;;4.64;53.25;100663.25;5080184;28;20048;-79
2022/12/08 01:36:46;;;;;;;15.30;9.95;;;;;;;4.63;53.35;100654.28;5092003;28;20387;-78
2022/12/08 01:39:17;;;;;;;13.88;9.35;;;;;;;4.64;53.29;100650.56;5075527;28;20048;-79
2022/12/08 01:41:46;;;;;;;15.50;10.10;;;;;;;4.64;53.26;100666.81;5073106;28;20048;-78
2022/12/08 01:44:53;;;;;;;15.63;10.07;;;;;;;4.63;52.93;100656.13;5070090;28;20094;-79
2022/12/08 01:47:30;;;;;;;13.60;9.63;;;;;;;4.62;53.26;100654.38;5077080;28;20056;-79
2022/12/08 01:49:58;;;;;;;15.20;9.85;;;;;;;4.58;53.31;100650.09;5080889;28;20055;-79
2022/12/08 01:52:32;;;;;;;16.17;10.25;;;;;;;4.60;52.95;100646.34;5078170;28;20052;-79
2022/12/08 01:55:03;;;;;;;15.68;10.20;;;;;;;4.59;53.13;100649.13;5079565;28;20036;-81
2022/12/08 01:57:37;;;;;;;15.25;9.60;;;;;;;4.60;53.37;100645.47;5072412;28;20163;-80
2022/12/08 02:00:08;;;;;;;17.17;9.77;;;;;;;4.59;52.88;100641.00;5073648;28;20051;-80
2022/12/08 02:02:45;;;;;;;13.70;9.05;;;;;;;4.57;53.19;100632.97;5083496;28;20056;-80
2022/12/08 02:05:14;;;;;;;14.57;9.38;;;;;;;4.58;53.28;100636.56;5078891;28;20044;-80
2022/12/08 02:07:42;;;;;;;14.48;10.13;;;;;;;4.57;53.11;100638.41;5074333;28;20066;-80
2022/12/08 02:10:13;;;;;;;14.98;9.32;;;;;;;4.59;53.16;100636.47;5080240;28;20048;-81
2022/12/08 02:12:42;;;;;;;14.25;9.48;;;;;;;4.58;53.03;100626.59;5092859;28;20105;-80
2022/12/08 02:15:13;;;;;;;14.13;9.02;;;;;;;4.59;53.28;100624.75;5097200;28;20608;-80
2022/12/08 02:17:54;;;;;;;15.13;9.85;;;;;;;4.60;53.17;100632.78;5084849;28;20044;-80
2022/12/08 02:20:36;;;;;;;14.10;9.45;;;;;;;4.60;53.01;100626.50;5077606;28;20123;-80
2022/12/08 02:23:10;;;;;;;14.13;9.13;;;;;;;4.59;53.17;100627.47;5090218;28;20143;-80
2022/12/08 02:25:46;;;;;;;13.85;9.02;;;;;;;4.58;53.03;100623.00;5073055;28;20051;-81
2022/12/08 02:28:37;;;;;;;13.43;9.18;;;;;;;4.59;53.08;100616.63;5082374;28;20041;-80
2022/12/08 02:31:17;;;;;;;14.70;9.07;;;;;;;4.58;53.16;100604.91;5086907;28;20115;-80
2022/12/08 02:34:18;;;;;;;14.48;9.10;;;;;;;4.57;52.72;100614.00;5084351;28;20052;-81
2022/12/08 02:37:07;;;;;;;15.23;9.45;;;;;;;4.57;53.02;100605.88;5091112;28;20052;-81
2022/12/08 02:39:42;;;;;;;14.05;8.60;;;;;;;4.56;53.34;100601.41;5091528;28;20048;-80
2022/12/08 02:42:20;;;;;;;13.05;8.23;;;;;;;4.57;53.05;100594.16;5088824;28;20502;-80
2022/12/08 02:44:55;;;;;;;12.75;7.88;;;;;;;4.58;53.19;100593.19;5078980;28;20040;-80
2022/12/08 02:47:26;;;;;;;12.57;8.55;;;;;;;4.57;53.13;100588.75;5076055;28;20117;-81
2022/12/08 02:49:55;;;;;;;10.50;7.25;;;;;;;4.57;52.99;100586.91;5088137;28;20028;-81
2022/12/08 02:52:42;;;;;;;13.05;7.22;;;;;;;4.56;52.77;100585.16;5078058;28;20052;-81
2022/12/08 02:55:19;;;;;;;12.38;7.57;;;;;;;4.57;53.07;100581.47;5078439;28;20480;-81
2022/12/08 02:58:17;;;;;;;11.65;7.38;;;;;;;4.57;53.11;100584.19;5072592;28;20050;-81
2022/12/08 03:01:02;;;;;;;11.43;7.10;;;;;;;4.58;53.01;100577.81;5062807;28;20052;-81
2022/12/08 03:03:41;;;;;;;10.68;6.63;;;;;;;4.58;52.97;100574.22;5075961;28;20051;-80
2022/12/08 03:06:20;;;;;;;12.05;7.50;;;;;;;4.59;52.92;100573.25;5066535;28;20051;-81
2022/12/08 03:08:55;;;;;;;12.30;7.30;;;;;;;4.59;53.19;100565.13;5083111;28;20051;-81
2022/12/08 03:11:30;;;;;;;11.18;6.88;;;;;;;4.59;53.21;100566.00;5073119;28;20047;-81
2022/12/08 03:14:01;;;;;;;10.40;7.13;;;;;;;4.58;52.97;100561.53;5088862;28;20070;-80
2022/12/08 03:16:32;;;;;;;10.43;7.40;;;;;;;4.60;53.37;100558.72;5078331;28;20641;-81
2022/12/08 03:19:10;;;;;;;11.05;7.25;;;;;;;4.60;52.93;100554.19;5085833;28;20494;-81
2022/12/08 03:21:39;;;;;;;11.93;6.70;;;;;;;4.61;53.13;100557.75;5074325;28;20040;-81
2022/12/08 03:24:10;;;;;;;13.20;7.63;;;;;;;4.62;53.06;100554.97;5069119;28;20090;-81
2022/12/08 03:26:45;;;;;;;12.68;7.85;;;;;;;4.62;52.91;100546.81;5075242;28;20048;-81
2022/12/08 03:29:13;;;;;;;10.68;7.47;;;;;;;4.61;53.17;100545.09;5075336;28;20044;-79
2022/12/08 03:31:58;;;;;;;12.25;7.68;;;;;;;4.61;52.47;100539.66;5086250;28;20044;-80
2022/12/08 03:34:29;;;;;;;11.52;7.40;;;;;;;4.63;53.00;100542.28;5075675;28;20124;-80
2022/12/08 03:37:00;;;;;;;9.93;7.07;;;;;;;4.62;52.86;100538.69;5071563;28;20044;-80
2022/12/08 03:39:30;;;;;;;9.90;6.93;;;;;;;4.62;52.79;100533.28;5090054;28;20040;-80
2022/12/08 03:41:57;;;;;;;11.57;6.90;;;;;;;4.60;53.01;100535.22;5074657;28;20044;-80
2022/12/08 03:44:25;;;;;;;9.95;6.43;;;;;;;4.58;53.13;100531.72;5081832;28;20086;-80
2022/12/08 03:46:53;;;;;;;9.95;6.85;;;;;;;4.60;53.01;100534.34;5073687;28;20044;-80
2022/12/08 03:49:21;;;;;;;10.05;6.93;;;;;;;4.61;53.15;100528.81;5085066;28;20103;-80
2022/12/08 03:51:49;;;;;;;10.50;6.60;;;;;;;4.61;53.09;100526.09;5071790;28;20036;-80
2022/12/08 03:54:17;;;;;;;10.48;7.00;;;;;;;4.61;53.18;100523.41;5067547;28;20044;-80
2022/12/08 03:56:46;;;;;;;9.45;6.57;;;;;;;4.62;52.83;100513.44;5077536;28;20047;-80
2022/12/08 03:59:14;;;;;;;9.50;6.30;;;;;;;4.61;52.94;100520.69;5090781;28;20056;-80
2022/12/08 04:01:42;;;;;;;9.38;6.35;;;;;;;4.60;52.96;100508.09;5076963;28;20031;-80
2022/12/08 04:04:10;;;;;;;10.00;6.20;;;;;;;4.61;52.96;100506.25;5087809;28;20059;-78
2022/12/08 04:06:38;;;;;;;9.82;6.20;;;;;;;4.62;52.95;100508.88;5091729;28;20298;-79
2022/12/08 04:09:06;;;;;;;9.75;5.93;;;;;;;4.62;53.02;100506.16;5072263;28;20064;-78
2022/12/08 04:11:33;;;;;;;8.05;5.30;;;;;;;4.62;53.06;100497.16;5080111;28;20105;-78
2022/12/08 04:14:03;;;;;;;7.80;5.32;;;;;;;4.64;52.77;100504.19;5041808;28;20108;-78
2022/12/08 04:16:31;;;;;;;8.57;5.75;;;;;;;4.62;52.63;100487.19;5086126;22;20089;-79
2022/12/08 04:18:59;;;;;;;7.72;5.50;;;;;;;4.63;52.73;100493.47;5088429;28;20586;-79
2022/12/08 04:21:27;;;;;;;7.55;5.18;;;;;;;4.64;52.68;100487.06;5088708;28;20490;-79
2022/12/08 04:23:55;;;;;;;8.45;5.45;;;;;;;4.63;52.65;100493.47;5087524;28;20139;-79
2022/12/08 04:26:30;;;;;;;8.30;5.60;;;;;;;4.60;52.95;100478.28;5098200;28;20060;-81
2022/12/08 04:28:58;;;;;;;7.78;5.53;;;;;;;4.61;52.75;100481.88;5083960;28;20041;-81
2022/12/08 04:31:27;;;;;;;9.77;5.70;;;;;;;4.62;52.85;100473.63;5069559;28;20044;-81
2022/12/08 04:33:55;;;;;;;8.50;5.30;;;;;;;4.60;52.92;100474.72;5068296;28;20048;-81
2022/12/08 04:36:23;;;;;;;8.63;5.40;;;;;;;4.59;52.92;100473.84;5084396;28;20110;-80
2022/12/08 04:38:51;;;;;;;8.27;5.45;;;;;;;4.60;52.79;100472.00;5069056;28;20056;-82
2022/12/08 04:41:19;;;;;;;8.15;5.47;;;;;;;4.60;52.78;100475.59;5069205;28;20071;-82
2022/12/08 04:43:46;;;;;;;8.63;5.43;;;;;;;4.60;53.07;100474.72;5083665;28;20056;-82
2022/12/08 04:46:14;;;;;;;8.02;5.45;;;;;;;4.60;52.94;100472.00;5067640;28;20052;-81
2022/12/08 04:48:44;;;;;;;8.25;5.78;;;;;;;4.61;53.22;100471.91;5068613;28;20067;-80
2022/12/08 04:51:16;;;;;;;9.38;5.60;;;;;;;4.61;53.13;100471.91;5070100;28;20045;-81
2022/12/08 04:53:44;;;;;;;8.32;5.85;;;;;;;4.58;53.05;100465.81;5086626;28;20071;-80
2022/12/08 04:56:14;;;;;;;8.48;5.57;;;;;;;4.59;53.19;100467.56;5082279;28;20037;-82
2022/12/08 04:58:45;;;;;;;7.32;5.38;;;;;;;4.59;52.95;100472.97;5063580;28;20102;-82
2022/12/08 05:01:13;;;;;;;7.40;5.35;;;;;;;4.58;53.25;100469.38;5071821;28;20049;-81
2022/12/08 05:03:41;;;;;;;8.40;5.68;;;;;;;4.59;53.16;100467.56;5066506;28;20043;-82
2022/12/08 05:06:13;;;;;;;9.70;5.65;;;;;;;4.58;53.12;100460.38;5084224;28;20526;-82
2022/12/08 05:08:41;;;;;;;7.80;5.65;;;;;;;4.55;53.11;100459.63;5070989;28;20048;-81
2022/12/08 05:11:11;;;;;;;7.93;5.10;;;;;;;4.57;53.22;100464.06;5082299;28;20049;-81
2022/12/08 05:13:39;;;;;;;8.98;5.93;;;;;;;4.54;53.31;100468.75;5070872;28;20072;-81
2022/12/08 05:16:10;;;;;;;8.52;5.40;;;;;;;4.55;53.35;100464.19;5067481;28;20553;-81
2022/12/08 05:18:39;;;;;;;9.68;6.07;;;;;;;4.54;53.15;100459.75;5100518;28;20090;-82
2022/12/08 05:21:07;;;;;;;10.30;6.28;;;;;;;4.53;53.12;100452.59;5104984;28;20087;-81
2022/12/08 05:23:37;;;;;;;9.90;5.95;;;;;;;4.53;53.12;100458.00;5069243;28;20086;-82
2022/12/08 05:26:05;;;;;;;10.88;6.50;;;;;;;4.51;53.31;100460.81;5069011;28;20530;-82
2022/12/08 05:28:33;;;;;;;10.38;6.38;;;;;;;4.50;53.55;100461.78;5073413;28;20050;-83
2022/12/08 05:31:11;;;;;;;10.35;6.32;;;;;;;4.50;53.56;100456.38;5068914;28;20054;-81
2022/12/08 05:33:40;;;;;;;10.98;6.65;;;;;;;4.51;53.66;100455.41;5070025;28;20072;-81
2022/12/08 05:36:09;;;;;;;10.00;6.90;;;;;;;4.51;53.85;100459.94;5065010;28;20040;-84
2022/12/08 05:38:38;;;;;;;10.43;6.80;;;;;;;4.49;53.40;100454.63;5103463;28;20073;-83
2022/12/08 05:41:07;;;;;;;11.52;7.47;;;;;;;4.50;53.46;100452.78;5071190;28;20041;-82
2022/12/08 05:43:36;;;;;;;11.30;8.07;;;;;;;4.49;53.55;100445.63;5072160;28;20048;-79
2022/12/08 05:46:04;;;;;;;11.10;7.57;;;;;;;4.49;53.77;100443.78;5068148;28;20040;-79
2022/12/08 05:48:32;;;;;;;13.73;8.25;;;;;;;4.49;53.71;100446.50;5067614;28;20102;-81
2022/12/08 05:51:01;;;;;;;14.00;9.20;;;;;;;4.50;53.54;100439.25;5102941;28;20044;-79
2022/12/08 05:53:30;;;;;;;16.63;8.95;;;;;;;4.49;53.77;100441.09;5072451;28;20044;-83
2022/12/08 05:56:00;;;;;;;13.65;8.13;;;;;;;4.51;53.90;100436.44;5072226;28;20380;-81
2022/12/08 05:58:29;;;;;;;14.63;8.52;;;;;;;4.50;53.77;100431.13;5073227;28;20093;-79
2022/12/08 06:00:57;;;;;;;16.27;9.43;;;;;;;4.51;53.60;100432.84;5066079;28;20041;-80
2022/12/08 06:03:25;;;;;;;15.65;9.40;;;;;;;4.51;53.52;100438.28;5063616;28;20056;-79
2022/12/08 06:05:53;;;;;;;15.27;9.20;;;;;;;4.51;53.77;100436.44;5070072;28;20044;-79
2022/12/08 06:08:21;;;;;;;15.13;9.20;;;;;;;4.51;53.75;100444.56;5071159;28;20460;-79
2022/12/08 06:10:49;;;;;;;15.43;9.50;;;;;;;4.52;53.69;100437.31;5070873;28;20053;-79
2022/12/08 06:13:19;;;;;;;16.80;10.35;;;;;;;4.51;53.68;100433.72;5096645;27;20049;-80
2022/12/08 06:15:46;;;;;;;15.98;9.93;;;;;;;4.51;53.90;100436.44;5075384;28;20341;-80
2022/12/08 06:18:14;;;;;;;16.70;10.30;;;;;;;4.52;53.88;100431.88;5075148;28;20080;-79
2022/12/08 06:20:43;;;;;;;14.52;9.38;;;;;;;4.52;53.69;100429.16;5069013;28;20071;-80
2022/12/08 06:23:12;;;;;;;16.35;10.07;;;;;;;4.52;53.84;100431.88;5073351;28;20044;-80
2022/12/08 06:25:40;;;;;;;14.75;9.38;;;;;;;4.50;53.79;100423.84;5071099;28;20074;-79
2022/12/08 06:28:08;;;;;;;18.02;9.25;;;;;;;4.51;53.69;100424.72;5069947;28;20087;-78
2022/12/08 06:30:37;;;;;;;14.98;9.13;;;;;;;4.52;53.90;100429.16;5086129;28;20178;-80
2022/12/08 06:33:05;;;;;;;15.27;9.43;;;;;;;4.51;53.60;100432.84;5071971;28;20136;-79
2022/12/08 06:35:33;;;;;;;15.80;9.15;;;;;;;4.50;53.65;100431.97;5041442;28;20040;-79
2022/12/08 06:38:01;;;;;;;13.88;8.80;;;;;;;4.50;53.71;100428.41;5070975;28;20048;-79
2022/12/08 06:40:29;;;;;;;13.30;8.80;;;;;;;4.49;53.60;100430.25;5068740;28;20044;-79
2022/12/08 06:42:57;;;;;;;13.27;8.63;;;;;;;4.48;53.49;100424.94;5072910;28;20513;-79
2022/12/08 06:45:25;;;;;;;13.90;8.77;;;;;;;4.48;53.72;100427.63;5061588;28;20045;-78
2022/12/08 06:47:54;;;;;;;11.88;8.15;;;;;;;4.48;53.43;100425.78;5083960;28;20045;-79
2022/12/08 06:50:22;;;;;;;12.95;8.75;;;;;;;4.47;53.74;100431.34;5069156;28;20040;-79
2022/12/08 06:52:50;;;;;;;10.90;8.00;;;;;;;4.46;53.70;100429.59;5069084;28;20044;-78
2022/12/08 06:55:31;;;;;;;13.35;8.43;;;;;;;4.45;53.46;100430.56;5088279;28;20118;-79
2022/12/08 06:58:20;;;;;;;10.65;7.40;;;;;;;4.43;53.74;100427.97;5103147;27;20041;-79
2022/12/08 07:00:48;;;;;;;12.75;8.05;;;;;;;4.44;53.84;100428.84;5065856;28;20049;-80
2022/12/08 07:03:17;;;;;;;12.38;7.85;;;;;;;4.45;53.63;100436.88;5069717;28;20044;-79
2022/12/08 07:05:45;;;;;;;12.77;8.27;;;;;;;4.43;53.23;100446.06;5070268;28;20041;-79
2022/12/08 07:08:14;;;;;;;12.45;8.15;;;;;;;4.43;53.55;100451.47;5079508;28;20060;-78
2022/12/08 07:10:42;;;;;;;12.02;8.13;;;;;;;4.42;53.55;100452.44;5064401;28;20036;-79
2022/12/08 07:13:10;;;;;;;12.20;8.60;;;;;;;4.41;53.62;100451.59;5069890;28;20068;-78
2022/12/08 07:15:38;;;;;;;12.90;8.50;;;;;;;4.40;53.76;100449.84;5063130;28;20040;-79
2022/12/08 07:18:06;;;;;;;12.68;8.82;;;;;;;4.40;53.52;100455.25;5066681;28;20044;-78
2022/12/08 07:20:35;;;;;;;12.98;8.77;;;;;;;4.41;53.80;100448.88;5066297;28;20110;-79
2022/12/08 07:23:03;;;;;;;12.43;8.25;;;;;;;4.41;53.74;100450.72;5087014;28;20104;-78
2022/12/08 07:25:31;;;;;;;12.57;8.30;;;;;;;4.40;53.58;100451.69;5068061;28;20495;-78
2022/12/08 07:27:59;;;;;;;12.63;8.52;;;;;;;4.40;53.70;100457.97;5069026;28;20453;-78
2022/12/08 07:30:27;;;;;;;12.77;8.25;;;;;;;4.38;53.72;100453.66;5066411;28;20582;-79
2022/12/08 07:32:55;;;;;;;13.73;8.50;;;;;;;4.38;53.91;100457.22;5069868;28;20063;-78
2022/12/08 07:35:23;;;;;;;13.70;8.95;;;;;;;4.38;53.62;100456.34;5078813;28;20037;-78
2022/12/08 07:37:52;;;;;;;13.88;7.93;;;;;;;4.37;53.45;100447.34;5067463;28;20078;-79
2022/12/08 07:40:21;;;;;;;14.10;8.93;;;;;;;4.35;53.46;100452.00;5097092;27;20497;-79
2022/12/08 07:42:48;;;;;;;12.27;8.20;;;;;;;4.34;53.88;100452.09;5069362;28;20051;-78
2022/12/08 07:45:17;;;;;;;12.20;7.95;;;;;;;4.32;53.83;100449.50;5069676;28;20044;-78
2022/12/08 07:47:44;;;;;;;11.32;8.30;;;;;;;4.29;53.88;100449.72;5082095;28;20051;-78
2022/12/08 07:50:12;;;;;;;12.27;8.48;;;;;;;4.28;53.93;100447.13;5068751;28;20042;-78
2022/12/08 07:52:40;;;;;;;11.52;7.57;;;;;;;4.26;54.26;100452.63;5066500;28;20051;-77
2022/12/08 07:55:10;;;;;;;12.00;7.55;;;;;;;4.24;53.80;100451.84;5047169;28;20048;-78
2022/12/08 07:57:37;;;;;;;10.25;7.15;;;;;;;4.23;53.67;100454.66;5074578;28;20049;-79
2022/12/08 08:00:07;;;;;;;10.40;6.60;;;;;;;4.20;54.00;100450.34;5056113;28;20094;-78
2022/12/08 08:02:41;;;;;;;12.10;7.25;;;;;;;4.19;53.73;100447.72;5071104;28;20498;-79
2022/12/08 08:05:11;;;;;;;12.32;7.22;;;;;;;4.18;53.51;100449.56;5069341;28;20453;-80
2022/12/08 08:07:42;;;;;;;10.43;7.15;;;;;;;4.16;53.83;100448.81;5070994;28;20052;-80
2022/12/08 08:10:15;;;;;;;12.98;7.40;;;;;;;4.15;53.76;100450.63;5069478;28;20128;-80
2022/12/08 08:12:43;;;;;;;11.35;7.10;;;;;;;4.11;53.85;100446.41;5072804;28;20519;-80
2022/12/08 08:15:12;;;;;;;9.30;6.90;;;;;;;4.13;53.86;100454.44;5074000;28;20090;-80
2022/12/08 08:17:41;;;;;;;12.20;7.10;;;;;;;4.11;53.94;100448.25;5104415;28;20045;-80
2022/12/08 08:20:10;;;;;;;11.73;7.07;;;;;;;4.09;53.86;100453.75;5070067;28;20070;-80
2022/12/08 08:22:38;;;;;;;12.57;7.72;;;;;;;4.08;53.87;100454.72;5107662;28;21110;-80
2022/12/08 08:25:06;;;;;;;11.65;7.88;;;;;;;4.06;53.87;100448.53;5073031;28;20094;-80
2022/12/08 08:27:35;;;;;;;9.73;6.65;;;;;;;4.07;54.03;100453.00;5074703;28;20127;-80
2022/12/08 08:30:04;;;;;;;11.88;7.45;;;;;;;4.05;53.86;100454.97;5072426;28;20052;-80
2022/12/08 08:32:33;;;;;;;11.80;7.78;;;;;;;4.04;54.06;100460.47;5075352;28;20052;-80
2022/12/08 08:35:04;;;;;;;13.63;7.43;;;;;;;4.04;54.02;100453.22;5074888;28;20049;-81
2022/12/08 08:37:32;;;;;;;12.88;7.65;;;;;;;4.02;53.74;100447.03;5078255;28;20056;-80
2022/12/08 08:40:00;;;;;;;13.52;8.35;;;;;;;4.02;53.59;100457.00;5111339;28;20044;-80
2022/12/08 08:42:29;;;;;;;13.77;8.20;;;;;;;4.02;54.04;100457.00;5072222;28;20090;-81
2022/12/08 08:44:58;;;;;;;14.95;9.15;;;;;;;4.01;53.91;100456.13;5071554;28;20075;-81
2022/12/08 08:47:26;;;;;;;16.55;8.60;;;;;;;4.00;53.89;100456.22;5087815;28;20040;-81
2022/12/08 08:49:54;;;;;;;14.18;9.10;;;;;;;4.00;54.19;100458.91;5074665;28;20111;-81
2022/12/08 08:52:22;;;;;;;12.68;8.50;;;;;;;4.00;54.17;100453.50;5076775;28;20060;-81
2022/12/08 08:54:50;;;;;;;14.55;8.77;;;;;;;3.99;54.08;100447.22;5075055;28;20388;-81
2022/12/08 08:57:17;;;;;;;15.75;9.65;;;;;;;3.99;54.28;100449.06;5075620;28;20067;-81
2022/12/08 08:59:52;;;;;;;14.82;9.07;;;;;;;4.00;54.11;100453.50;5076170;28;20066;-81
2022/12/08 09:02:21;;;;;;;16.27;10.00;;;;;;;4.00;54.35;100446.25;5085742;28;20091;-81
2022/12/08 09:04:49;;;;;;;16.30;9.90;;;;;;;4.00;54.23;100442.69;5078042;28;20680;-81
2022/12/08 09:07:17;;;;;;;15.90;10.02;;;;;;;4.00;54.26;100448.09;5080006;28;20033;-81
2022/12/08 09:09:46;;;;;;;17.40;9.63;;;;;;;4.02;54.06;100444.31;5076089;28;20048;-81
2022/12/08 09:12:14;;;;;;;18.23;9.90;;;;;;;4.01;54.24;100449.84;5076318;28;20032;-81
2022/12/08 09:14:43;;;;;;;17.15;9.50;;;;;;;4.01;54.16;100455.25;5071129;28;20052;-81
2022/12/08 09:17:11;;;;;;;15.32;9.57;;;;;;;4.01;54.14;100453.41;5110533;28;20070;-81
2022/12/08 09:19:40;;;;;;;15.80;9.60;;;;;;;4.05;54.21;100448.69;5069839;28;20048;-81
2022/12/08 09:22:08;;;;;;;15.25;8.93;;;;;;;4.04;54.43;100449.63;5078191;28;20044;-81
2022/12/08 09:24:37;;;;;;;16.73;9.40;;;;;;;4.04;54.38;100455.06;5080126;28;20463;-81
2022/12/08 09:27:05;;;;;;;17.15;9.73;;;;;;;4.04;54.23;100453.22;5079084;28;20045;-81
2022/12/08 09:29:34;;;;;;;16.17;9.52;;;;;;;4.07;54.25;100461.13;5109614;28;20151;-81
2022/12/08 09:32:03;;;;;;;13.63;8.20;;;;;;;4.06;54.09;100455.78;5074564;28;20037;-82
2022/12/08 09:34:32;;;;;;;17.52;9.38;;;;;;;4.06;53.92;100456.66;5090009;28;20064;-81
2022/12/08 09:37:01;;;;;;;14.65;8.30;;;;;;;4.09;54.15;100458.31;5071034;28;20055;-80
2022/12/08 09:39:29;;;;;;;13.02;7.78;;;;;;;4.08;54.03;100456.56;5106252;28;20580;-80
2022/12/08 09:42:01;;;;;;;14.55;8.05;;;;;;;4.09;54.28;100453.75;5087511;28;20462;-80
2022/12/08 09:44:44;;;;;;;13.05;7.70;;;;;;;4.10;54.18;100454.63;5087042;28;20131;-80
2022/12/08 09:47:26;;;;;;;12.85;7.20;;;;;;;4.09;54.24;100453.75;5074194;28;20068;-80
2022/12/08 09:50:06;;;;;;;12.23;7.30;;;;;;;4.08;53.90;100441.19;5100606;28;20055;-80
2022/12/08 09:52:41;;;;;;;;;;;;;;;3.86;54.80;100454.44;5076851;28;20045;-80
2022/12/08 09:55:19;;;;;;;13.48;6.97;;;;;;;4.05;54.23;100446.84;5074184;28;19920;-80
2022/12/08 09:57:54;;;;;;;12.93;7.20;;;;;;;4.08;54.19;100451.16;5089909;28;20045;-80
2022/12/08 10:00:24;;;;;;;11.18;6.72;;;;;;;4.08;54.22;100443.03;5068995;28;20037;-80
2022/12/08 10:02:52;;;;;;;11.50;7.47;;;;;;;4.08;53.92;100440.31;5077064;28;20048;-80
2022/12/08 10:05:22;;;;;;;12.85;6.88;;;;;;;4.08;54.12;100440.31;5071045;28;20055;-80
2022/12/08 10:08:03;;;;;;;12.38;7.82;;;;;;;4.10;54.08;100438.38;5072476;28;20048;-80
2022/12/08 10:10:39;;;;;;;9.95;6.53;;;;;;;4.10;54.19;100446.50;5104952;28;20139;-80
2022/12/08 10:13:20;;;;;;;9.80;6.10;;;;;;;4.10;54.02;100441.97;5071859;28;20053;-80
2022/12/08 10:15:58;;;;;;;10.13;6.60;;;;;;;4.10;54.09;100439.25;5072235;28;20056;-80
2022/12/08 10:18:29;;;;;;;10.23;6.03;;;;;;;4.10;54.08;100431.13;5066977;22;20049;-83
2022/12/08 10:21:05;;;;;;;10.48;6.00;;;;;;;4.12;54.02;100431.03;5032964;28;20400;-82
2022/12/08 10:23:39;;;;;;;9.80;6.43;;;;;;;4.12;53.99;100431.91;5033310;28;20078;-80
2022/12/08 10:26:13;;;;;;;10.35;6.22;;;;;;;4.14;53.91;100434.53;5033442;28;20160;-82
2022/12/08 10:28:42;;;;;;;9.38;5.90;;;;;;;4.12;53.99;100425.63;5034029;28;20052;-79
2022/12/08 10:31:21;;;;;;;10.88;6.32;;;;;;;4.14;53.80;100426.38;5047951;28;20521;-82
2022/12/08 10:33:56;;;;;;;11.15;6.40;;;;;;;4.16;53.93;100424.44;5021305;28;20244;-79
2022/12/08 10:36:44;;;;;;;10.45;6.05;;;;;;;4.13;53.98;100424.66;5050093;28;20050;-80
2022/12/08 10:39:35;;;;;;;9.40;5.57;;;;;;;4.13;54.12;100421.94;5032466;28;20129;-81
2022/12/08 10:42:09;;;;;;;13.20;6.28;;;;;;;4.14;53.98;100415.56;5023208;28;20076;-81
2022/12/08 10:44:54;;;;;;;11.63;5.78;;;;;;;4.16;53.85;100416.31;5024414;28;20416;-82
2022/12/08 10:47:25;;;;;;;9.73;5.90;;;;;;;4.13;54.10;100420.09;5034471;28;20135;-79
2022/12/08 10:50:18;;;;;;;11.38;6.25;;;;;;;4.16;54.04;100416.31;5031851;28;20465;-81
2022/12/08 10:52:53;;;;;;;;;;;;;;;3.91;54.66;100408.09;5035179;28;20064;-82
2022/12/08 10:55:23;;;;;;;8.48;5.47;;;;;;;4.11;54.26;100403.09;5034622;28;19960;-83
2022/12/08 10:57:51;;;;;;;10.18;5.68;;;;;;;4.14;54.02;100408.28;5047836;28;20040;-81
2022/12/08 11:00:21;;;;;;;9.55;6.03;;;;;;;4.16;53.93;100410.88;5033903;28;20048;-82
2022/12/08 11:02:53;;;;;;;9.35;5.97;;;;;;;4.18;54.05;100408.06;5052104;28;20041;-81
2022/12/08 11:05:28;;;;;;;9.50;6.70;;;;;;;4.19;53.95;100399.84;5046941;28;20467;-82
2022/12/08 11:07:56;;;;;;;11.38;6.28;;;;;;;4.18;54.33;100406.25;5043134;28;20055;-81
2022/12/08 11:10:34;;;;;;;10.63;6.35;;;;;;;4.21;53.96;100399.75;5038496;28;20037;-81
2022/12/08 11:13:04;;;;;;;10.43;5.93;;;;;;;4.20;54.17;100398.00;5033335;28;20099;-81
2022/12/08 11:15:37;;;;;;;9.98;6.28;;;;;;;4.22;54.14;100393.38;5032903;28;20052;-79
2022/12/08 11:18:21;;;;;;;11.88;7.03;;;;;;;4.23;54.33;100395.06;5034018;28;20509;-83
2022/12/08 11:21:02;;;;;;;11.82;6.80;;;;;;;4.24;54.30;100386.84;5007857;28;20468;-81
2022/12/08 11:23:30;;;;;;;11.05;6.55;;;;;;;4.25;54.38;100390.44;5030924;28;20132;-80
2022/12/08 11:26:07;;;;;;;10.65;6.32;;;;;;;4.28;54.21;100385.69;5034538;28;20037;-81
2022/12/08 11:28:38;;;;;;;9.18;5.95;;;;;;;4.28;54.39;100382.97;5029579;28;20050;-82
2022/12/08 11:31:16;;;;;;;10.70;6.45;;;;;;;4.31;54.15;100374.59;5034792;28;20067;-82
2022/12/08 11:33:46;;;;;;;11.18;6.53;;;;;;;4.30;54.30;100370.19;5033400;28;20108;-82
2022/12/08 11:36:16;;;;;;;9.60;5.97;;;;;;;4.32;54.21;100362.81;5052182;28;20127;-80
2022/12/08 11:38:47;;;;;;;11.15;5.90;;;;;;;4.34;54.19;100371.69;5050294;28;20107;-83
2022/12/08 11:41:35;;;;;;;9.27;5.93;;;;;;;4.35;53.97;100375.28;5037744;28;20045;-82
2022/12/08 11:44:15;;;;;;;11.93;7.22;;;;;;;4.36;54.10;100371.59;5023568;28;20041;-82
2022/12/08 11:46:52;;;;;;;10.85;6.20;;;;;;;4.35;53.89;100375.28;5043083;28;20187;-81
2022/12/08 11:49:20;;;;;;;9.52;5.47;;;;;;;4.36;53.75;100371.59;5058601;28;20427;-80
2022/12/08 11:51:53;;;;;;;9.10;5.55;;;;;;;4.37;53.80;100374.22;5048115;28;20499;-82